This is the latest recevied weather packets stored in our database for station/object F4THN-13. If no packets are shown the sender has not sent any weather packets the latest 10 day(s).
| Time | Temp. | Humidity | Pressure | Rain* | Wind** | Luminosity | Snow |
|---|---|---|---|---|---|---|---|
| 1777531308 | 13.89° C | 76% | 1017.9 hPa | 0 mm | - | - | - |
| 1777529808 | 13.89° C | 76% | 1017.8 hPa | 0 mm | - | - | - |
| 1777528308 | 12.22° C | 78% | 1017.5 hPa | 0 mm | - | - | - |
| 1777526808 | 11.11° C | 78% | 1017.2 hPa | 0 mm | - | - | - |
| 1777525307 | 11.67° C | 77% | 1017 hPa | 0 mm | - | - | - |
| 1777523807 | 11.67° C | 77% | 1017.1 hPa | 0 mm | - | - | - |
| 1777522307 | 11.67° C | 77% | 1017 hPa | 0 mm | - | - | - |
| 1777520807 | 12.22° C | 76% | 1016.8 hPa | 0 mm | - | - | - |
| 1777519307 | 12.22° C | 76% | 1016.9 hPa | 0 mm | - | - | - |
| 1777517807 | 12.22° C | 76% | 1016.7 hPa | 0 mm | - | - | - |
| 1777516307 | 12.78° C | 76% | 1016.7 hPa | 0 mm | - | - | - |
| 1777514806 | 12.78° C | 76% | 1016.6 hPa | 0 mm | - | - | - |
| 1777513306 | 15° C | 71% | 1016.7 hPa | 0 mm | - | - | - |
| 1777511806 | 15° C | 71% | 1016.6 hPa | 0 mm | - | - | - |
| 1777510306 | 15° C | 71% | 1016.7 hPa | 0 mm | - | - | - |
| 1777508806 | 15° C | 71% | 1016.7 hPa | 0 mm | - | - | - |
| 1777507306 | 15.56° C | 74% | 1016.5 hPa | 0 mm | - | - | - |
| 1777505805 | 15.56° C | 74% | 1016.1 hPa | 0 mm | - | - | - |
| 1777504305 | 15.56° C | 74% | 1016 hPa | 0 mm | - | - | - |
| 1777502805 | 15.56° C | 74% | 1015.9 hPa | 0 mm | - | - | - |
| 1777501305 | 15.56° C | 74% | 1015.7 hPa | 0 mm | - | - | - |
| 1777499805 | 15.56° C | 74% | 1015.5 hPa | 0 mm | - | - | - |
| 1777498305 | 16.11° C | 74% | 1015.3 hPa | 0 mm | - | - | - |
| 1777496804 | 16.11° C | 75% | 1015.3 hPa | 0 mm | - | - | - |
| 1777495304 | 17.22° C | 73% | 1015.1 hPa | 0 mm | - | - | - |
* Rain latest hour (hover to see other rain measurements)
** Current wind speed in m/s (hover to see current wind gust speed)